Time;durP1;ratioP1;P1;durP2;ratioP2;P2;SDS_P1;SDS_P2;PMS_P1;PMS_P2;Temp;Humidity;BMP_temperature;BMP_pressure;BME280_temperature;BME280_humidity;BME280_pressure;Samples;Min_cycle;Max_cycle;Signal;HPM_P1;HPM_P2
2022/08/06 00:00:47;;;;;;;12.43;8.17;;;18.80;99.90;;;;;;4375335;28;657634;-62
2022/08/06 00:03:34;;;;;;;11.63;7.23;;;18.80;99.90;;;;;;4368171;28;657512;-64
2022/08/06 00:06:22;;;;;;;12.77;7.47;;;18.80;99.90;;;;;;4347878;28;659478;-62
2022/08/06 00:09:10;;;;;;;13.17;7.80;;;18.70;99.90;;;;;;4374833;28;657839;-62
2022/08/06 00:12:00;;;;;;;12.30;7.53;;;18.70;99.90;;;;;;4349939;28;658125;-62
2022/08/06 00:14:47;;;;;;;10.77;7.80;;;18.80;99.90;;;;;;4357806;28;658468;-62
2022/08/06 00:17:34;;;;;;;13.20;7.80;;;18.70;99.90;;;;;;4374366;28;657056;-63
2022/08/06 00:20:21;;;;;;;10.00;7.43;;;18.70;99.90;;;;;;4348964;28;657402;-62
2022/08/06 00:23:08;;;;;;;10.00;7.50;;;18.70;99.90;;;;;;4369004;28;658050;-62
2022/08/06 00:25:55;;;;;;;9.33;7.67;;;18.60;99.90;;;;;;4356434;28;657619;-65
2022/08/06 00:28:44;;;;;;;8.77;7.67;;;18.60;99.90;;;;;;4373127;28;656661;-62
2022/08/06 00:31:31;;;;;;;12.63;8.20;;;18.60;99.90;;;;;;4353179;28;656380;-62
2022/08/06 00:34:18;;;;;;;11.70;7.90;;;18.60;99.90;;;;;;4374057;28;658463;-62
2022/08/06 00:37:05;;;;;;;11.10;7.97;;;18.60;99.90;;;;;;4352036;28;657543;-64
2022/08/06 00:39:52;;;;;;;11.07;8.20;;;18.60;99.90;;;;;;4375749;28;658374;-62
2022/08/06 00:42:39;;;;;;;13.00;9.20;;;18.50;99.90;;;;;;4374387;28;657954;-62
2022/08/06 00:45:28;;;;;;;11.90;8.30;;;18.50;99.90;;;;;;4352860;28;657340;-62
2022/08/06 00:48:15;;;;;;;10.13;8.03;;;18.50;99.90;;;;;;4350460;28;658324;-63
2022/08/06 00:51:02;;;;;;;16.13;8.80;;;18.50;99.90;;;;;;4376165;28;659184;-63
2022/08/06 00:53:49;;;;;;;9.60;7.93;;;18.50;99.90;;;;;;4369708;28;657669;-62
2022/08/06 00:56:36;;;;;;;11.57;7.90;;;18.40;99.90;;;;;;4348044;28;656818;-62
2022/08/06 00:59:24;;;;;;;11.33;8.03;;;18.50;99.90;;;;;;4372336;28;658296;-62
2022/08/06 01:02:12;;;;;;;12.70;8.43;;;18.50;99.90;;;;;;4352202;28;657618;-63
2022/08/06 01:04:59;;;;;;;10.43;7.60;;;18.30;99.90;;;;;;4370026;28;658312;-63
2022/08/06 01:07:46;;;;;;;14.47;8.17;;;18.30;99.90;;;;;;4349295;28;658245;-63
2022/08/06 01:10:33;;;;;;;13.80;7.73;;;18.30;99.90;;;;;;4372876;28;658871;-62
2022/08/06 01:13:20;;;;;;;13.10;8.17;;;18.30;99.90;;;;;;4347225;28;657900;-62
2022/08/06 01:16:11;;;;;;;11.17;8.53;;;18.40;99.90;;;;;;4370173;28;658552;-62
2022/08/06 01:19:02;;;;;;;12.50;8.80;;;18.60;99.90;;;;;;4349875;28;658262;-62
2022/08/06 01:21:57;;;;;;;15.00;9.77;;;18.60;99.90;;;;;;4345365;28;658490;-62
2022/08/06 01:24:51;;;;;;;11.90;9.60;;;19.10;99.90;;;;;;4350633;28;657432;-62
2022/08/06 01:27:43;;;;;;;17.23;9.90;;;19.20;99.90;;;;;;4352433;28;657972;-62
2022/08/06 01:30:31;;;;;;;11.53;8.83;;;19.20;99.90;;;;;;4329854;28;657999;-63
2022/08/06 01:33:21;;;;;;;17.03;9.53;;;19.20;99.90;;;;;;4363945;28;658524;-62
2022/08/06 01:36:10;;;;;;;12.83;9.33;;;19.00;99.90;;;;;;4346482;28;658381;-62
2022/08/06 01:38:58;;;;;;;13.87;9.30;;;18.90;99.90;;;;;;4340964;28;658722;-62
2022/08/06 01:41:47;;;;;;;12.30;8.90;;;18.90;99.90;;;;;;4345159;28;657907;-62
2022/08/06 01:44:37;;;;;;;11.43;9.37;;;18.90;99.90;;;;;;4363316;28;657540;-62
2022/08/06 01:47:24;;;;;;;13.17;9.27;;;18.70;99.90;;;;;;4347934;28;657532;-62
2022/08/06 01:50:12;;;;;;;12.87;9.37;;;18.60;99.90;;;;;;4354888;28;658022;-62
2022/08/06 01:53:00;;;;;;;13.93;9.33;;;18.50;99.90;;;;;;4367489;28;658088;-62
2022/08/06 01:55:50;;;;;;;10.87;9.57;;;18.40;99.90;;;;;;4349822;28;658307;-62
2022/08/06 01:58:39;;;;;;;18.77;9.83;;;18.20;99.90;;;;;;4347396;28;658190;-62
2022/08/06 02:01:28;;;;;;;12.50;9.67;;;18.10;99.90;;;;;;4350029;28;657820;-62
2022/08/06 02:04:16;;;;;;;12.68;9.10;;;18.00;99.90;;;;;;4344308;28;657653;-62
2022/08/06 02:07:04;;;;;;;13.40;9.60;;;17.90;99.90;;;;;;4375914;28;658350;-62
2022/08/06 02:09:51;;;;;;;15.03;10.00;;;17.90;99.90;;;;;;4354099;28;657881;-62
2022/08/06 02:12:38;;;;;;;12.43;9.18;;;17.90;99.90;;;;;;4363360;28;659647;-62
2022/08/06 02:15:28;;;;;;;14.73;10.10;;;17.90;99.90;;;;;;4351175;28;657359;-63
2022/08/06 02:18:16;;;;;;;13.63;8.90;;;17.80;99.90;;;;;;4363329;28;658653;-64
2022/08/06 02:21:04;;;;;;;16.17;9.73;;;17.70;99.90;;;;;;4365159;28;658094;-65
2022/08/06 02:23:52;;;;;;;21.27;10.50;;;17.70;99.90;;;;;;4347341;28;660054;-62
2022/08/06 02:26:40;;;;;;;15.37;10.17;;;17.70;99.90;;;;;;4373430;28;658961;-62
2022/08/06 02:29:27;;;;;;;13.70;11.17;;;17.70;99.90;;;;;;4346258;28;659446;-62
2022/08/06 02:32:16;;;;;;;18.87;11.40;;;17.70;99.90;;;;;;4365489;28;658570;-62
2022/08/06 02:35:06;;;;;;;21.43;14.93;;;17.90;99.90;;;;;;4347387;28;659133;-63
2022/08/06 02:37:54;;;;;;;20.40;13.53;;;18.10;99.90;;;;;;4345601;28;661176;-63
2022/08/06 02:40:43;;;;;;;26.57;16.23;;;18.30;99.90;;;;;;4347856;28;659809;-63
2022/08/06 02:43:33;;;;;;;27.33;17.13;;;17.90;99.90;;;;;;4344891;28;658593;-64
2022/08/06 02:46:22;;;;;;;23.00;17.23;;;18.10;99.90;;;;;;4348086;28;659033;-64
2022/08/06 02:49:12;;;;;;;30.43;17.93;;;18.50;99.90;;;;;;4369827;28;659350;-62
2022/08/06 02:52:03;;;;;;;26.83;17.93;;;18.70;99.90;;;;;;4347356;28;658549;-62
2022/08/06 02:54:55;;;;;;;27.30;18.47;;;18.80;99.90;;;;;;4332120;28;658768;-64
2022/08/06 02:57:47;;;;;;;29.03;17.10;;;18.70;99.90;;;;;;4340853;28;659305;-64
2022/08/06 03:00:34;;;;;;;29.97;19.37;;;18.60;99.90;;;;;;4345216;28;658946;-63
2022/08/06 03:03:23;;;;;;;26.47;17.90;;;18.60;99.90;;;;;;4342998;28;658402;-62
2022/08/06 03:06:10;;;;;;;24.63;17.53;;;18.60;99.90;;;;;;4353909;28;658620;-64
2022/08/06 03:09:00;;;;;;;24.77;17.57;;;18.60;99.90;;;;;;4365310;28;659896;-63
2022/08/06 03:11:47;;;;;;;29.00;17.37;;;18.60;99.90;;;;;;4344021;28;658927;-63
2022/08/06 03:14:34;;;;;;;30.47;20.50;;;18.20;99.90;;;;;;4369200;28;658812;-63
2022/08/06 03:17:21;;;;;;;26.40;18.30;;;18.30;99.90;;;;;;4355135;28;658821;-63
2022/08/06 03:20:09;;;;;;;27.33;17.60;;;18.20;99.90;;;;;;4368189;28;659541;-63
2022/08/06 03:22:59;;;;;;;29.80;20.30;;;18.30;99.90;;;;;;4356078;28;658843;-63
2022/08/06 03:25:47;;;;;;;28.93;20.37;;;18.50;99.90;;;;;;4351232;28;658840;-63
2022/08/06 03:28:35;;;;;;;39.23;21.70;;;18.60;99.90;;;;;;4370586;28;657857;-63
2022/08/06 03:31:22;;;;;;;35.07;20.07;;;18.60;99.90;;;;;;4349868;28;658409;-63
2022/08/06 03:34:09;;;;;;;33.93;20.67;;;18.70;99.90;;;;;;4369793;28;658270;-64
2022/08/06 03:36:56;;;;;;;34.50;21.23;;;18.70;99.90;;;;;;4350933;28;659970;-65
2022/08/06 03:39:44;;;;;;;38.77;21.53;;;18.70;99.90;;;;;;4374678;28;658788;-66
2022/08/06 03:42:32;;;;;;;31.17;19.67;;;18.80;99.90;;;;;;4351452;28;659378;-67
2022/08/06 03:45:19;;;;;;;31.13;16.97;;;18.80;99.90;;;;;;4370226;28;658319;-65
2022/08/06 03:48:07;;;;;;;32.10;17.70;;;18.90;99.90;;;;;;4348962;28;659279;-64
2022/08/06 03:50:54;;;;;;;26.10;16.63;;;18.90;99.90;;;;;;4375475;28;658459;-65
2022/08/06 03:53:42;;;;;;;25.27;15.37;;;18.90;99.90;;;;;;4350184;28;659018;-64
2022/08/06 03:56:29;;;;;;;31.17;16.10;;;18.90;99.90;;;;;;4374534;28;658789;-64
2022/08/06 03:59:18;;;;;;;18.33;12.17;;;18.80;99.90;;;;;;4348938;28;658793;-65
2022/08/06 04:02:05;;;;;;;29.43;14.97;;;18.80;99.90;;;;;;4353381;28;658683;-65
2022/08/06 04:04:52;;;;;;;20.07;13.90;;;18.80;99.90;;;;;;4376810;28;659534;-65
2022/08/06 04:07:39;;;;;;;23.93;13.93;;;18.90;99.90;;;;;;4369088;28;658755;-65
2022/08/06 04:10:28;;;;;;;24.93;13.90;;;18.90;99.90;;;;;;4354379;28;658841;-64
2022/08/06 04:13:16;;;;;;;23.53;13.57;;;19.00;99.90;;;;;;4352052;28;658632;-65
2022/08/06 04:16:05;;;;;;;24.97;13.57;;;19.00;99.90;;;;;;4375690;28;659370;-65
2022/08/06 04:18:55;;;;;;;24.07;12.83;;;19.10;99.90;;;;;;4351036;28;659855;-65
2022/08/06 04:21:42;;;;;;;23.97;13.23;;;19.20;99.90;;;;;;4343649;28;659305;-64
2022/08/06 04:24:29;;;;;;;25.10;13.00;;;19.20;99.90;;;;;;4366883;28;658754;-65
2022/08/06 04:27:16;;;;;;;24.50;12.83;;;19.20;99.90;;;;;;4351578;28;658361;-64
2022/08/06 04:30:04;;;;;;;23.02;12.45;;;19.30;99.90;;;;;;4373794;28;658874;-64
2022/08/06 04:32:52;;;;;;;27.10;12.87;;;19.40;99.90;;;;;;4349875;28;658828;-65
2022/08/06 04:35:40;;;;;;;28.50;13.77;;;19.40;99.90;;;;;;4365546;28;659208;-66
2022/08/06 04:38:27;;;;;;;24.83;12.80;;;19.40;99.90;;;;;;4372806;28;659311;-65
2022/08/06 04:41:15;;;;;;;29.93;13.37;;;19.40;99.90;;;;;;4364566;28;658720;-65
2022/08/06 04:44:02;;;;;;;24.83;12.70;;;19.30;99.90;;;;;;4376009;28;658586;-65
2022/08/06 04:46:49;;;;;;;23.47;11.97;;;19.30;99.90;;;;;;4367666;28;658520;-65
2022/08/06 04:49:38;;;;;;;16.80;10.83;;;19.40;99.90;;;;;;4351863;28;659138;-64
2022/08/06 04:52:26;;;;;;;12.50;9.13;;;19.50;99.90;;;;;;4354736;28;659187;-66
2022/08/06 04:55:14;;;;;;;16.73;9.87;;;19.60;99.90;;;;;;4366937;28;658211;-65
2022/08/06 04:58:01;;;;;;;16.17;10.13;;;19.70;99.90;;;;;;4352030;28;657762;-65
2022/08/06 05:00:50;;;;;;;15.83;10.03;;;19.70;99.90;;;;;;4371076;28;658683;-65
2022/08/06 05:03:37;;;;;;;17.07;10.50;;;19.90;99.90;;;;;;4343376;28;659995;-65
2022/08/06 05:06:26;;;;;;;17.40;10.50;;;20.00;99.90;;;;;;4367082;28;658471;-65
2022/08/06 05:09:16;;;;;;;13.15;10.20;;;20.10;99.90;;;;;;4350325;28;658560;-65
2022/08/06 05:12:04;;;;;;;14.00;9.47;;;20.10;99.90;;;;;;4353211;28;659114;-65
2022/08/06 05:14:54;;;;;;;14.63;9.43;;;20.20;99.90;;;;;;4349179;28;658064;-67
2022/08/06 05:17:43;;;;;;;12.30;8.30;;;20.20;99.90;;;;;;4350347;28;658286;-66
2022/08/06 05:20:32;;;;;;;12.03;9.23;;;20.20;99.90;;;;;;4354055;28;658435;-66
2022/08/06 05:23:22;;;;;;;14.07;8.83;;;20.30;99.90;;;;;;4363175;28;658050;-64
2022/08/06 05:26:09;;;;;;;14.80;9.40;;;20.40;99.90;;;;;;4342336;28;657532;-65
2022/08/06 05:28:56;;;;;;;14.07;10.00;;;20.30;99.90;;;;;;4351533;28;658556;-65
2022/08/06 05:31:43;;;;;;;13.10;8.90;;;20.50;99.90;;;;;;4367244;28;659056;-66
2022/08/06 05:34:31;;;;;;;13.30;9.20;;;20.50;99.90;;;;;;4344377;28;657254;-65
2022/08/06 05:37:18;;;;;;;13.70;10.00;;;20.90;99.90;;;;;;4367074;28;658422;-66
2022/08/06 05:40:08;;;;;;;17.47;10.53;;;20.90;99.90;;;;;;4355229;28;658950;-66
2022/08/06 05:42:55;;;;;;;22.30;10.90;;;21.00;99.90;;;;;;4358844;28;660745;-65
2022/08/06 05:45:42;;;;;;;18.77;10.50;;;20.80;99.90;;;;;;4369532;28;658989;-65
2022/08/06 05:48:31;;;;;;;22.07;10.73;;;21.00;99.90;;;;;;4362790;28;658673;-65
2022/08/06 05:51:20;;;;;;;13.73;9.60;;;21.00;99.90;;;;;;4339139;28;659414;-65
2022/08/06 05:54:12;;;;;;;17.80;9.70;;;21.00;99.90;;;;;;4350959;28;658970;-66
2022/08/06 05:57:04;;;;;;;13.67;9.00;;;21.20;99.90;;;;;;4343555;28;658242;-66
2022/08/06 05:59:54;;;;;;;14.23;7.73;;;21.30;99.90;;;;;;4349600;28;658252;-66
2022/08/06 06:02:42;;;;;;;9.93;7.43;;;21.20;99.90;;;;;;4347950;28;657792;-66
2022/08/06 06:05:30;;;;;;;9.07;7.30;;;21.40;99.90;;;;;;4364433;28;657890;-67
2022/08/06 06:08:18;;;;;;;9.93;7.43;;;21.40;99.90;;;;;;4362897;28;656409;-65
2022/08/06 06:11:07;;;;;;;8.43;6.50;;;21.30;99.90;;;;;;4357072;28;656411;-67
2022/08/06 06:13:56;;;;;;;11.15;7.00;;;21.40;99.90;;;;;;4371116;28;658865;-66
2022/08/06 06:16:47;;;;;;;13.37;7.53;;;21.50;99.90;;;;;;4347093;28;657862;-66
2022/08/06 06:19:47;;;;;;;10.80;6.53;;;21.50;99.90;;;;;;4347345;28;657591;-66
2022/08/06 06:22:36;;;;;;;8.27;6.57;;;21.50;99.90;;;;;;4348816;28;658224;-67
2022/08/06 06:25:26;;;;;;;11.50;6.50;;;21.50;99.90;;;;;;4359260;28;657515;-65
2022/08/06 06:28:16;;;;;;;9.53;6.90;;;21.60;99.90;;;;;;4340744;28;658290;-64
2022/08/06 06:31:07;;;;;;;10.77;7.37;;;21.60;99.90;;;;;;4338726;28;656710;-64
2022/08/06 06:34:11;;;;;;;9.53;7.13;;;21.60;99.90;;;;;;4343812;28;658133;-65
2022/08/06 06:37:04;;;;;;;13.97;6.80;;;21.30;99.90;;;;;;4344605;28;656917;-64
2022/08/06 06:40:00;;;;;;;13.03;7.17;;;21.30;99.90;;;;;;4349637;28;657662;-65
2022/08/06 06:42:51;;;;;;;11.10;7.57;;;21.30;99.90;;;;;;4326553;28;657569;-63
2022/08/06 06:45:42;;;;;;;9.87;7.40;;;21.30;99.90;;;;;;4346043;28;658576;-63
2022/08/06 06:48:33;;;;;;;9.10;7.13;;;21.50;99.90;;;;;;4344354;28;656767;-63
2022/08/06 06:51:25;;;;;;;9.07;7.17;;;21.70;99.90;;;;;;4323306;28;656825;-63
2022/08/06 06:54:17;;;;;;;8.70;6.73;;;21.80;99.90;;;;;;4330511;28;657283;-64
2022/08/06 06:57:04;;;;;;;7.47;6.47;;;22.00;99.90;;;;;;4325602;28;656907;-63
2022/08/06 06:59:53;;;;;;;7.20;6.07;;;22.40;99.90;;;;;;4324238;28;656617;-63
2022/08/06 07:02:40;;;;;;;9.30;6.37;;;22.70;99.90;;;;;;4343188;28;656337;-65
2022/08/06 07:05:29;;;;;;;9.10;6.77;;;22.80;99.90;;;;;;4353613;28;656717;-64
2022/08/06 07:08:17;;;;;;;8.30;6.53;;;22.70;99.90;;;;;;4332148;28;656606;-63
2022/08/06 07:11:04;;;;;;;9.30;6.20;;;22.70;99.90;;;;;;4362593;28;656390;-63
2022/08/06 07:13:52;;;;;;;7.70;6.33;;;22.70;99.90;;;;;;4342535;28;657349;-63
2022/08/06 07:16:40;;;;;;;6.10;5.40;;;22.10;99.90;;;;;;4359347;28;656571;-63
2022/08/06 07:19:27;;;;;;;8.57;5.60;;;22.50;99.90;;;;;;4328353;28;658253;-63
2022/08/06 07:22:15;;;;;;;9.50;5.60;;;22.60;99.90;;;;;;4351006;28;658816;-63
2022/08/06 07:25:04;;;;;;;9.43;5.00;;;22.90;99.90;;;;;;4338855;28;657906;-63
2022/08/06 07:27:51;;;;;;;6.30;5.65;;;22.80;99.90;;;;;;4326432;28;656361;-64
2022/08/06 07:30:39;;;;;;;10.40;6.03;;;22.70;99.90;;;;;;4349232;28;656874;-64
2022/08/06 07:33:26;;;;;;;6.27;5.60;;;22.40;99.90;;;;;;4328378;28;658084;-64
2022/08/06 07:36:14;;;;;;;8.20;5.87;;;22.10;99.90;;;;;;4340309;28;657793;-63
2022/08/06 07:39:04;;;;;;;7.10;6.40;;;21.90;99.90;;;;;;4335316;28;656299;-64
2022/08/06 07:41:52;;;;;;;11.43;6.40;;;21.50;99.90;;;;;;4323212;28;656570;-64
2022/08/06 07:44:42;;;;;;;11.57;6.57;;;21.50;99.90;;;;;;4342724;28;657734;-63
2022/08/06 07:47:31;;;;;;;10.67;6.57;;;21.60;99.90;;;;;;4339454;28;657921;-64
2022/08/06 07:50:18;;;;;;;6.67;5.87;;;21.70;99.90;;;;;;4334458;28;658722;-63
2022/08/06 07:53:05;;;;;;;7.40;5.70;;;21.90;99.90;;;;;;4338311;28;658056;-64
2022/08/06 07:55:54;;;;;;;6.70;5.97;;;22.10;99.90;;;;;;4361893;28;657181;-65
2022/08/06 07:58:41;;;;;;;6.53;5.87;;;22.20;99.90;;;;;;4349796;28;656947;-64
2022/08/06 08:01:28;;;;;;;9.27;6.03;;;22.00;99.90;;;;;;4370147;28;657113;-63
2022/08/06 08:07:20;;;;;;;12.40;5.67;;;22.40;99.90;;;;;;4329448;28;656867;-65
2022/08/06 08:10:08;;;;;;;8.50;5.70;;;22.20;99.90;;;;;;4372518;28;658766;-63
2022/08/06 08:12:57;;;;;;;5.50;4.37;;;22.30;99.90;;;;;;4350043;28;656668;-64
2022/08/06 08:15:44;;;;;;;5.33;4.50;;;22.50;99.90;;;;;;4366555;28;656507;-64
2022/08/06 08:18:31;;;;;;;6.17;4.47;;;22.40;99.90;;;;;;4351525;28;656882;-64
2022/08/06 08:21:18;;;;;;;5.10;4.10;;;22.40;99.90;;;;;;4360286;28;657611;-63
2022/08/06 08:24:06;;;;;;;4.47;3.70;;;22.00;99.90;;;;;;4344471;28;656684;-65
2022/08/06 08:26:53;;;;;;;5.13;2.70;;;22.00;99.90;;;;;;4360107;28;657401;-63
2022/08/06 08:29:42;;;;;;;3.47;2.87;;;22.00;99.90;;;;;;4349222;28;656462;-65
2022/08/06 08:32:29;;;;;;;3.40;3.10;;;21.90;99.90;;;;;;4361577;28;656649;-63
2022/08/06 08:35:16;;;;;;;2.87;2.57;;;21.90;99.90;;;;;;4345317;28;656917;-63
2022/08/06 08:38:03;;;;;;;4.63;2.93;;;21.90;99.90;;;;;;4368819;28;657119;-63
2022/08/06 08:40:51;;;;;;;11.73;3.53;;;21.80;99.90;;;;;;4353490;28;657281;-64
2022/08/06 08:43:41;;;;;;;3.50;2.37;;;21.60;99.90;;;;;;4369442;28;658232;-62
2022/08/06 08:46:31;;;;;;;2.33;2.13;;;21.40;99.90;;;;;;4345677;28;657117;-63
2022/08/06 08:49:20;;;;;;;2.60;2.03;;;21.20;99.90;;;;;;4338127;28;657532;-63
2022/08/06 08:52:08;;;;;;;1.87;1.77;;;21.10;99.90;;;;;;4348774;28;657778;-63
2022/08/06 08:54:59;;;;;;;3.30;2.30;;;20.80;99.90;;;;;;4341925;28;656727;-64
2022/08/06 08:57:46;;;;;;;2.63;2.20;;;20.70;99.90;;;;;;4343506;28;656450;-64
2022/08/06 09:00:33;;;;;;;2.53;2.33;;;20.60;99.90;;;;;;4375490;28;655962;-63
2022/08/06 09:03:22;;;;;;;2.70;2.50;;;20.50;99.90;;;;;;4350181;28;656890;-64
2022/08/06 09:06:09;;;;;;;2.50;2.30;;;20.40;99.90;;;;;;4363858;28;656292;-64
2022/08/06 09:08:56;;;;;;;4.57;2.40;;;20.30;99.90;;;;;;4343936;28;658255;-63
2022/08/06 09:11:43;;;;;;;2.80;2.53;;;20.00;99.90;;;;;;4374115;28;656612;-64
2022/08/06 09:14:30;;;;;;;5.90;3.00;;;19.90;99.90;;;;;;4353650;28;658508;-64
2022/08/06 09:17:18;;;;;;;2.57;2.33;;;19.90;99.90;;;;;;4368014;28;656879;-63
2022/08/06 09:20:07;;;;;;;3.70;2.60;;;19.80;99.90;;;;;;4360317;28;656442;-64
2022/08/06 09:22:55;;;;;;;8.67;3.10;;;19.70;99.90;;;;;;4362636;28;657186;-65
2022/08/06 09:25:44;;;;;;;2.95;2.47;;;19.70;99.90;;;;;;4369329;28;658282;-64
2022/08/06 09:28:34;;;;;;;2.97;2.57;;;19.80;99.90;;;;;;4347517;28;658214;-64
2022/08/06 09:31:21;;;;;;;29.40;8.57;;;19.70;99.90;;;;;;4345465;28;656532;-64
2022/08/06 09:34:08;;;;;;;4.13;2.57;;;19.60;99.90;;;;;;4365707;28;657554;-64
2022/08/06 09:36:57;;;;;;;2.37;2.10;;;19.60;99.90;;;;;;4345261;28;656665;-64
2022/08/06 09:39:45;;;;;;;2.60;2.00;;;19.50;99.90;;;;;;4368484;28;656656;-64
2022/08/06 09:42:38;;;;;;;1.77;1.67;;;19.40;99.90;;;;;;4344267;28;657483;-64
2022/08/06 09:45:26;;;;;;;3.50;2.23;;;19.40;99.90;;;;;;4319108;28;656587;-65
2022/08/06 09:48:13;;;;;;;2.00;1.57;;;19.10;99.90;;;;;;4366093;28;657005;-64
2022/08/06 09:51:00;;;;;;;1.47;1.37;;;18.80;99.90;;;;;;4343136;28;656630;-66
2022/08/06 09:53:53;;;;;;;1.23;1.13;;;18.80;99.90;;;;;;4349916;28;656968;-66
2022/08/06 09:56:41;;;;;;;1.23;1.13;;;18.80;99.90;;;;;;4335588;28;656755;-67
2022/08/06 09:59:28;;;;;;;1.87;1.30;;;18.60;99.90;;;;;;4355858;28;656754;-66
2022/08/06 10:02:17;;;;;;;1.73;1.20;;;18.60;99.90;;;;;;4338582;28;656905;-67
2022/08/06 10:05:08;;;;;;;1.30;1.20;;;18.70;99.90;;;;;;4352720;28;657237;-67
2022/08/06 10:08:10;;;;;;;2.07;1.30;;;18.60;99.90;;;;;;4309089;28;656603;-67
2022/08/06 10:11:02;;;;;;;1.30;1.20;;;18.60;99.90;;;;;;4331336;28;656636;-66
2022/08/06 10:13:49;;;;;;;1.43;1.20;;;18.80;99.90;;;;;;4331994;28;657075;-66
2022/08/06 10:16:36;;;;;;;1.23;1.10;;;18.80;99.90;;;;;;4330165;28;656623;-67
2022/08/06 10:19:24;;;;;;;1.47;1.20;;;18.80;99.90;;;;;;4353466;28;656729;-66
2022/08/06 10:22:12;;;;;;;1.47;1.20;;;18.70;99.90;;;;;;4333996;28;656322;-68
2022/08/06 10:25:02;;;;;;;1.00;1.00;;;18.70;99.90;;;;;;4350673;28;656067;-66
2022/08/06 10:27:50;;;;;;;2.77;1.63;;;18.80;99.90;;;;;;4329403;28;656704;-67
2022/08/06 10:30:37;;;;;;;1.50;1.10;;;18.70;99.90;;;;;;4326625;28;657707;-67
2022/08/06 10:33:25;;;;;;;1.33;1.23;;;18.90;99.90;;;;;;4341616;28;656549;-66
2022/08/06 10:36:15;;;;;;;1.50;1.17;;;18.90;99.90;;;;;;4326432;28;656464;-66
2022/08/06 10:39:02;;;;;;;2.80;1.30;;;18.90;99.90;;;;;;4328047;28;658395;-66
2022/08/06 10:41:49;;;;;;;1.47;1.33;;;19.00;99.90;;;;;;4348303;28;656579;-66
2022/08/06 10:44:38;;;;;;;2.33;1.53;;;19.00;99.90;;;;;;4330933;28;656566;-66
2022/08/06 10:47:25;;;;;;;1.40;1.30;;;18.90;99.90;;;;;;4329523;28;656435;-67
2022/08/06 10:50:13;;;;;;;1.43;1.33;;;18.80;99.90;;;;;;4356447;28;657655;-66
2022/08/06 10:53:01;;;;;;;1.70;1.60;;;18.90;99.90;;;;;;4352624;28;656223;-68
2022/08/06 10:55:48;;;;;;;3.57;1.60;;;18.70;99.90;;;;;;4370890;28;656197;-65
2022/08/06 10:58:36;;;;;;;5.00;4.40;;;18.50;99.90;;;;;;4352979;28;658689;-67
2022/08/06 11:01:28;;;;;;;5.57;4.30;;;18.40;99.90;;;;;;4373624;28;656653;-66
2022/08/06 11:04:21;;;;;;;6.17;4.70;;;18.40;99.90;;;;;;4332209;28;656866;-67
2022/08/06 11:07:21;;;;;;;11.17;8.07;;;18.10;99.90;;;;;;4341730;28;657300;-65
2022/08/06 11:10:19;;;;;;;12.07;8.83;;;18.10;99.90;;;;;;4342595;28;657747;-65
2022/08/06 11:13:12;;;;;;;15.60;9.97;;;18.00;99.90;;;;;;4324976;28;657996;-65
2022/08/06 11:15:59;;;;;;;14.63;9.03;;;17.90;99.90;;;;;;4345055;28;657312;-64
2022/08/06 11:19:00;;;;;;;13.50;9.27;;;18.00;99.90;;;;;;4351552;28;657568;-65
2022/08/06 11:21:49;;;;;;;11.20;8.60;;;17.80;99.90;;;;;;4325934;28;658404;-65
2022/08/06 11:24:50;;;;;;;19.20;13.07;;;17.80;99.90;;;;;;4353945;28;658089;-65
2022/08/06 11:27:51;;;;;;;19.07;12.27;;;17.70;99.90;;;;;;4317631;28;659576;-66
2022/08/06 11:30:40;;;;;;;16.60;11.17;;;17.50;99.90;;;;;;4347124;28;659365;-66
2022/08/06 11:34:00;;;;;;;12.20;8.73;;;17.50;99.90;;;;;;4340832;28;660131;-67
2022/08/06 11:36:49;;;;;;;13.57;8.57;;;17.70;99.90;;;;;;4318584;28;658635;-67
2022/08/06 11:40:05;;;;;;;10.83;8.63;;;17.40;99.90;;;;;;4350348;28;658078;-67
2022/08/06 11:42:52;;;;;;;7.93;5.83;;;17.30;99.90;;;;;;4321982;28;658185;-66
2022/08/06 11:46:03;;;;;;;11.87;7.97;;;17.40;99.90;;;;;;4368719;28;657015;-67
2022/08/06 11:49:16;;;;;;;8.30;6.50;;;17.40;99.90;;;;;;4330505;28;657856;-67
2022/08/06 11:52:04;;;;;;;5.40;3.80;;;17.30;99.90;;;;;;4349972;28;657403;-66
2022/08/06 11:55:01;;;;;;;4.47;3.80;;;17.40;99.90;;;;;;4349348;28;656696;-66
2022/08/06 11:57:48;;;;;;;5.03;4.23;;;17.30;99.90;;;;;;4352424;28;656681;-67
2022/08/06 12:00:35;;;;;;;5.97;4.70;;;17.40;99.90;;;;;;4338603;28;657794;-67
2022/08/06 12:03:36;;;;;;;5.90;4.70;;;17.20;99.90;;;;;;4375204;28;657555;-67
2022/08/06 12:06:26;;;;;;;9.10;4.77;;;17.30;99.90;;;;;;4347928;28;656426;-66
2022/08/06 12:09:18;;;;;;;6.50;4.37;;;17.50;99.90;;;;;;4350418;28;656511;-67
2022/08/06 12:12:34;;;;;;;8.67;4.60;;;17.50;99.90;;;;;;4333409;28;656152;-67
2022/08/06 12:15:37;;;;;;;4.67;3.97;;;17.10;99.90;;;;;;4330685;28;657103;-67
2022/08/06 12:18:24;;;;;;;5.30;4.00;;;17.10;99.90;;;;;;4348669;28;656691;-66
2022/08/06 12:21:11;;;;;;;4.23;3.43;;;17.10;99.90;;;;;;4348639;28;656683;-66
2022/08/06 12:24:00;;;;;;;4.33;3.90;;;17.10;99.90;;;;;;4366294;28;657268;-65
2022/08/06 12:26:47;;;;;;;4.97;4.00;;;17.10;99.90;;;;;;4350453;28;658118;-66
2022/08/06 12:29:34;;;;;;;4.83;4.33;;;17.00;99.90;;;;;;4377743;28;656982;-66
2022/08/06 12:32:22;;;;;;;6.13;4.33;;;17.10;99.90;;;;;;4354351;28;656665;-66
2022/08/06 12:35:12;;;;;;;6.27;4.50;;;17.10;99.90;;;;;;4368153;28;656388;-66
2022/08/06 12:37:59;;;;;;;5.90;4.80;;;17.20;99.90;;;;;;4352742;28;657441;-67
2022/08/06 12:40:54;;;;;;;4.93;3.83;;;16.90;99.90;;;;;;4353321;28;656608;-66
2022/08/06 12:43:43;;;;;;;2.83;2.50;;;16.90;99.90;;;;;;4317997;28;658033;-66
2022/08/06 12:46:31;;;;;;;4.43;3.90;;;17.00;99.90;;;;;;4353121;28;657311;-66
2022/08/06 12:49:18;;;;;;;5.03;4.53;;;17.00;99.90;;;;;;4362609;28;656519;-66
2022/08/06 12:52:12;;;;;;;5.93;5.10;;;16.90;99.90;;;;;;4347959;28;656617;-66
2022/08/06 12:55:00;;;;;;;5.10;4.20;;;17.10;99.90;;;;;;4342794;28;656832;-67
2022/08/06 12:57:49;;;;;;;5.07;4.40;;;17.10;99.90;;;;;;4376068;28;657427;-66
2022/08/06 13:00:36;;;;;;;6.73;4.20;;;17.20;99.90;;;;;;4343101;28;656617;-66
2022/08/06 13:03:24;;;;;;;7.63;4.50;;;17.20;99.90;;;;;;4367167;28;658556;-66
2022/08/06 13:06:12;;;;;;;5.63;4.93;;;17.10;99.90;;;;;;4349896;28;657540;-66
2022/08/06 13:08:59;;;;;;;5.90;5.30;;;17.00;99.90;;;;;;4376435;28;656131;-66
2022/08/06 13:11:46;;;;;;;6.50;4.63;;;16.90;99.90;;;;;;4347745;28;656320;-66
2022/08/06 13:14:34;;;;;;;6.60;5.27;;;17.00;99.90;;;;;;4379173;28;657938;-65
2022/08/06 13:17:22;;;;;;;6.17;5.50;;;17.00;99.90;;;;;;4348741;28;657475;-66
2022/08/06 13:20:09;;;;;;;5.63;5.13;;;17.00;99.90;;;;;;4377080;28;656344;-66
2022/08/06 13:22:56;;;;;;;7.03;6.27;;;16.90;99.90;;;;;;4346854;28;656597;-67
2022/08/06 13:25:44;;;;;;;8.50;6.67;;;17.00;99.90;;;;;;4368430;28;657056;-66
2022/08/06 13:28:31;;;;;;;7.30;6.47;;;16.80;99.90;;;;;;4356436;28;656713;-66
2022/08/06 13:31:20;;;;;;;10.17;7.40;;;16.80;99.90;;;;;;4377654;28;657254;-66
2022/08/06 13:34:09;;;;;;;10.57;8.67;;;16.70;99.90;;;;;;4340528;28;658015;-66
2022/08/06 13:36:59;;;;;;;13.13;9.23;;;16.70;99.90;;;;;;4345062;28;657870;-66
2022/08/06 13:39:52;;;;;;;13.73;9.50;;;16.60;99.90;;;;;;4355749;28;658066;-65
2022/08/06 13:42:50;;;;;;;10.20;8.73;;;16.60;99.90;;;;;;4353557;28;657776;-66
2022/08/06 13:45:37;;;;;;;13.37;9.80;;;16.70;99.90;;;;;;4330236;28;658359;-65
2022/08/06 13:48:25;;;;;;;12.40;9.40;;;16.70;99.90;;;;;;4366101;28;658360;-66
2022/08/06 13:51:13;;;;;;;9.33;7.17;;;16.70;99.90;;;;;;4332566;28;658015;-65
2022/08/06 13:54:00;;;;;;;14.37;10.60;;;16.70;99.90;;;;;;4363184;28;657533;-67
2022/08/06 13:56:48;;;;;;;14.67;11.33;;;16.70;99.90;;;;;;4367142;28;658878;-66
2022/08/06 13:59:37;;;;;;;14.47;10.67;;;16.70;99.90;;;;;;4350274;28;658548;-67
2022/08/06 14:02:24;;;;;;;11.43;9.93;;;16.80;99.90;;;;;;4360885;28;658668;-64
2022/08/06 14:05:12;;;;;;;13.47;9.90;;;16.70;99.90;;;;;;4353600;28;657588;-66
2022/08/06 14:07:59;;;;;;;13.30;8.93;;;16.80;99.90;;;;;;4368577;28;658012;-66
2022/08/06 14:10:46;;;;;;;13.13;9.60;;;16.80;99.90;;;;;;4345754;28;658346;-66
2022/08/06 14:13:33;;;;;;;15.00;10.00;;;16.90;99.90;;;;;;4359751;28;658119;-65
2022/08/06 14:16:21;;;;;;;14.60;11.37;;;17.00;99.90;;;;;;4352285;28;658668;-67
2022/08/06 14:19:08;;;;;;;14.23;10.97;;;17.10;99.90;;;;;;4377089;28;659497;-66
2022/08/06 14:21:56;;;;;;;15.23;11.80;;;17.20;99.90;;;;;;4349822;28;658614;-67